sensor_id;sensor_type;location;lat;lon;timestamp;P1;durP1;ratioP1;P2;durP2;ratioP2
41572;SDS011;27286;47.870;19.006;2023-02-15T00:01:36;16.65;;;8.98;;
41572;SDS011;27286;47.870;19.006;2023-02-15T00:04:02;18.17;;;10.48;;
41572;SDS011;27286;47.870;19.006;2023-02-15T00:06:28;15.63;;;9.48;;
41572;SDS011;27286;47.870;19.006;2023-02-15T00:08:54;15.23;;;9.25;;
41572;SDS011;27286;47.870;19.006;2023-02-15T00:11:20;15.77;;;9.35;;
41572;SDS011;27286;47.870;19.006;2023-02-15T00:14:06;16.88;;;8.82;;
41572;SDS011;27286;47.870;19.006;2023-02-15T00:16:33;17.02;;;9.02;;
41572;SDS011;27286;47.870;19.006;2023-02-15T00:18:59;14.10;;;7.95;;
41572;SDS011;27286;47.870;19.006;2023-02-15T00:21:27;15.88;;;8.77;;
41572;SDS011;27286;47.870;19.006;2023-02-15T00:23:57;16.10;;;8.93;;
41572;SDS011;27286;47.870;19.006;2023-02-15T00:26:23;13.68;;;9.23;;
41572;SDS011;27286;47.870;19.006;2023-02-15T00:28:49;14.55;;;9.27;;
41572;SDS011;27286;47.870;19.006;2023-02-15T00:31:14;14.43;;;7.97;;
41572;SDS011;27286;47.870;19.006;2023-02-15T00:33:39;14.15;;;8.25;;
41572;SDS011;27286;47.870;19.006;2023-02-15T00:36:06;13.40;;;8.55;;
41572;SDS011;27286;47.870;19.006;2023-02-15T00:38:33;12.30;;;8.32;;
41572;SDS011;27286;47.870;19.006;2023-02-15T00:41:00;15.13;;;8.05;;
41572;SDS011;27286;47.870;19.006;2023-02-15T00:43:29;14.48;;;8.48;;
41572;SDS011;27286;47.870;19.006;2023-02-15T00:45:55;13.05;;;8.32;;
41572;SDS011;27286;47.870;19.006;2023-02-15T00:48:21;15.15;;;8.20;;
41572;SDS011;27286;47.870;19.006;2023-02-15T00:50:51;13.25;;;7.57;;
41572;SDS011;27286;47.870;19.006;2023-02-15T00:53:18;14.18;;;8.68;;
41572;SDS011;27286;47.870;19.006;2023-02-15T00:55:44;14.63;;;8.77;;
41572;SDS011;27286;47.870;19.006;2023-02-15T00:58:10;12.02;;;7.78;;
41572;SDS011;27286;47.870;19.006;2023-02-15T01:00:36;14.45;;;8.20;;
41572;SDS011;27286;47.870;19.006;2023-02-15T01:03:03;14.48;;;8.13;;
41572;SDS011;27286;47.870;19.006;2023-02-15T01:05:29;13.75;;;8.13;;
41572;SDS011;27286;47.870;19.006;2023-02-15T01:07:56;14.85;;;8.60;;
41572;SDS011;27286;47.870;19.006;2023-02-15T01:10:22;13.00;;;7.15;;
41572;SDS011;27286;47.870;19.006;2023-02-15T01:12:49;13.90;;;8.00;;
41572;SDS011;27286;47.870;19.006;2023-02-15T01:15:15;14.55;;;7.72;;
41572;SDS011;27286;47.870;19.006;2023-02-15T01:17:40;15.35;;;8.35;;
41572;SDS011;27286;47.870;19.006;2023-02-15T01:20:06;17.92;;;8.57;;
41572;SDS011;27286;47.870;19.006;2023-02-15T01:22:32;11.93;;;7.45;;
41572;SDS011;27286;47.870;19.006;2023-02-15T01:24:58;17.25;;;7.07;;
41572;SDS011;27286;47.870;19.006;2023-02-15T01:27:23;14.35;;;7.25;;
41572;SDS011;27286;47.870;19.006;2023-02-15T01:29:49;13.38;;;6.85;;
41572;SDS011;27286;47.870;19.006;2023-02-15T01:32:14;11.13;;;7.25;;
41572;SDS011;27286;47.870;19.006;2023-02-15T01:34:39;12.48;;;7.65;;
41572;SDS011;27286;47.870;19.006;2023-02-15T01:37:05;12.15;;;7.18;;
41572;SDS011;27286;47.870;19.006;2023-02-15T01:39:30;13.35;;;7.95;;
41572;SDS011;27286;47.870;19.006;2023-02-15T01:41:56;14.73;;;9.32;;
41572;SDS011;27286;47.870;19.006;2023-02-15T01:47:13;15.38;;;8.30;;
41572;SDS011;27286;47.870;19.006;2023-02-15T01:49:43;15.07;;;8.52;;
41572;SDS011;27286;47.870;19.006;2023-02-15T01:52:12;14.98;;;8.52;;
41572;SDS011;27286;47.870;19.006;2023-02-15T01:54:41;14.10;;;8.02;;
41572;SDS011;27286;47.870;19.006;2023-02-15T01:57:15;11.25;;;6.82;;
41572;SDS011;27286;47.870;19.006;2023-02-15T01:59:45;14.75;;;7.15;;
41572;SDS011;27286;47.870;19.006;2023-02-15T02:02:13;10.40;;;6.55;;
41572;SDS011;27286;47.870;19.006;2023-02-15T02:04:46;15.68;;;8.60;;
41572;SDS011;27286;47.870;19.006;2023-02-15T02:07:14;13.02;;;7.82;;
41572;SDS011;27286;47.870;19.006;2023-02-15T02:09:42;14.98;;;8.25;;
41572;SDS011;27286;47.870;19.006;2023-02-15T02:12:09;16.60;;;8.23;;
41572;SDS011;27286;47.870;19.006;2023-02-15T02:14:35;13.13;;;8.15;;
41572;SDS011;27286;47.870;19.006;2023-02-15T02:28:27;9.57;;;5.43;;
41572;SDS011;27286;47.870;19.006;2023-02-15T02:34:03;14.90;;;6.75;;
41572;SDS011;27286;47.870;19.006;2023-02-15T02:36:45;14.07;;;8.35;;
41572;SDS011;27286;47.870;19.006;2023-02-15T02:39:39;11.23;;;7.25;;
41572;SDS011;27286;47.870;19.006;2023-02-15T02:42:16;12.77;;;7.68;;
41572;SDS011;27286;47.870;19.006;2023-02-15T02:44:52;11.82;;;7.57;;
41572;SDS011;27286;47.870;19.006;2023-02-15T02:47:33;14.63;;;7.78;;
41572;SDS011;27286;47.870;19.006;2023-02-15T02:50:25;12.85;;;7.30;;
41572;SDS011;27286;47.870;19.006;2023-02-15T02:52:54;14.30;;;8.10;;
41572;SDS011;27286;47.870;19.006;2023-02-15T03:00:40;12.35;;;7.50;;
41572;SDS011;27286;47.870;19.006;2023-02-15T03:03:14;10.85;;;6.78;;
41572;SDS011;27286;47.870;19.006;2023-02-15T03:05:44;11.98;;;6.90;;
41572;SDS011;27286;47.870;19.006;2023-02-15T03:08:12;13.95;;;6.65;;
41572;SDS011;27286;47.870;19.006;2023-02-15T03:10:46;12.90;;;6.90;;
41572;SDS011;27286;47.870;19.006;2023-02-15T03:13:13;13.38;;;7.15;;
41572;SDS011;27286;47.870;19.006;2023-02-15T03:15:39;12.10;;;6.72;;
41572;SDS011;27286;47.870;19.006;2023-02-15T03:18:28;12.98;;;7.95;;
41572;SDS011;27286;47.870;19.006;2023-02-15T03:21:08;13.52;;;8.13;;
41572;SDS011;27286;47.870;19.006;2023-02-15T03:23:47;13.70;;;8.77;;
41572;SDS011;27286;47.870;19.006;2023-02-15T03:26:17;15.13;;;8.75;;
41572;SDS011;27286;47.870;19.006;2023-02-15T03:28:46;14.60;;;7.75;;
41572;SDS011;27286;47.870;19.006;2023-02-15T03:31:16;13.93;;;7.85;;
41572;SDS011;27286;47.870;19.006;2023-02-15T03:33:52;13.48;;;8.52;;
41572;SDS011;27286;47.870;19.006;2023-02-15T03:39:10;14.85;;;7.65;;
41572;SDS011;27286;47.870;19.006;2023-02-15T03:41:39;15.52;;;8.00;;
41572;SDS011;27286;47.870;19.006;2023-02-15T03:44:32;14.45;;;8.15;;
41572;SDS011;27286;47.870;19.006;2023-02-15T03:47:06;14.10;;;8.05;;
41572;SDS011;27286;47.870;19.006;2023-02-15T03:49:38;14.52;;;8.95;;
41572;SDS011;27286;47.870;19.006;2023-02-15T03:52:08;15.07;;;8.63;;
41572;SDS011;27286;47.870;19.006;2023-02-15T03:54:35;22.40;;;9.98;;
41572;SDS011;27286;47.870;19.006;2023-02-15T03:57:15;17.60;;;9.82;;
41572;SDS011;27286;47.870;19.006;2023-02-15T04:00:00;15.77;;;9.27;;
41572;SDS011;27286;47.870;19.006;2023-02-15T04:05:33;21.73;;;11.43;;
41572;SDS011;27286;47.870;19.006;2023-02-15T04:07:59;16.77;;;10.20;;
41572;SDS011;27286;47.870;19.006;2023-02-15T04:10:24;18.73;;;10.63;;
41572;SDS011;27286;47.870;19.006;2023-02-15T04:13:09;18.70;;;9.32;;
41572;SDS011;27286;47.870;19.006;2023-02-15T04:15:34;20.90;;;13.00;;
41572;SDS011;27286;47.870;19.006;2023-02-15T04:18:18;19.00;;;10.82;;
41572;SDS011;27286;47.870;19.006;2023-02-15T04:20:44;17.00;;;10.35;;
41572;SDS011;27286;47.870;19.006;2023-02-15T04:23:28;16.13;;;10.43;;
41572;SDS011;27286;47.870;19.006;2023-02-15T04:26:12;22.13;;;12.57;;
41572;SDS011;27286;47.870;19.006;2023-02-15T04:28:38;18.88;;;10.65;;
41572;SDS011;27286;47.870;19.006;2023-02-15T04:31:03;33.10;;;17.60;;
41572;SDS011;27286;47.870;19.006;2023-02-15T04:33:29;31.08;;;18.83;;
41572;SDS011;27286;47.870;19.006;2023-02-15T04:35:54;26.58;;;14.38;;
41572;SDS011;27286;47.870;19.006;2023-02-15T04:38:21;22.65;;;13.05;;
41572;SDS011;27286;47.870;19.006;2023-02-15T04:40:50;20.48;;;11.73;;
41572;SDS011;27286;47.870;19.006;2023-02-15T04:43:17;17.65;;;11.93;;
41572;SDS011;27286;47.870;19.006;2023-02-15T04:45:48;23.02;;;12.95;;
41572;SDS011;27286;47.870;19.006;2023-02-15T04:48:15;22.00;;;12.57;;
41572;SDS011;27286;47.870;19.006;2023-02-15T04:50:42;21.30;;;12.35;;
41572;SDS011;27286;47.870;19.006;2023-02-15T04:53:07;17.83;;;10.88;;
41572;SDS011;27286;47.870;19.006;2023-02-15T04:55:33;18.73;;;9.35;;
41572;SDS011;27286;47.870;19.006;2023-02-15T04:57:58;16.75;;;8.98;;
41572;SDS011;27286;47.870;19.006;2023-02-15T05:00:23;14.95;;;9.02;;
41572;SDS011;27286;47.870;19.006;2023-02-15T05:02:49;16.30;;;8.98;;
41572;SDS011;27286;47.870;19.006;2023-02-15T05:05:14;16.60;;;9.25;;
41572;SDS011;27286;47.870;19.006;2023-02-15T05:07:40;23.95;;;10.30;;
41572;SDS011;27286;47.870;19.006;2023-02-15T05:10:06;17.08;;;10.05;;
41572;SDS011;27286;47.870;19.006;2023-02-15T05:12:32;21.73;;;11.05;;
41572;SDS011;27286;47.870;19.006;2023-02-15T05:14:57;21.30;;;11.77;;
41572;SDS011;27286;47.870;19.006;2023-02-15T05:17:22;20.65;;;11.80;;
41572;SDS011;27286;47.870;19.006;2023-02-15T05:19:48;24.08;;;13.95;;
41572;SDS011;27286;47.870;19.006;2023-02-15T05:22:13;22.20;;;12.25;;
41572;SDS011;27286;47.870;19.006;2023-02-15T05:24:39;19.80;;;10.38;;
41572;SDS011;27286;47.870;19.006;2023-02-15T05:27:23;16.33;;;8.73;;
41572;SDS011;27286;47.870;19.006;2023-02-15T05:30:07;15.02;;;9.00;;
41572;SDS011;27286;47.870;19.006;2023-02-15T05:32:36;17.20;;;9.05;;
41572;SDS011;27286;47.870;19.006;2023-02-15T05:35:03;14.52;;;8.05;;
41572;SDS011;27286;47.870;19.006;2023-02-15T05:37:29;16.42;;;9.30;;
41572;SDS011;27286;47.870;19.006;2023-02-15T05:39:55;14.18;;;8.15;;
41572;SDS011;27286;47.870;19.006;2023-02-15T05:42:20;16.38;;;9.35;;
41572;SDS011;27286;47.870;19.006;2023-02-15T05:44:46;18.60;;;9.60;;
41572;SDS011;27286;47.870;19.006;2023-02-15T05:47:11;15.68;;;8.77;;
41572;SDS011;27286;47.870;19.006;2023-02-15T05:49:36;15.50;;;8.75;;
41572;SDS011;27286;47.870;19.006;2023-02-15T05:52:02;18.70;;;9.52;;
41572;SDS011;27286;47.870;19.006;2023-02-15T05:54:28;16.70;;;9.10;;
41572;SDS011;27286;47.870;19.006;2023-02-15T05:56:54;13.82;;;8.25;;
41572;SDS011;27286;47.870;19.006;2023-02-15T05:59:19;14.98;;;8.90;;
41572;SDS011;27286;47.870;19.006;2023-02-15T06:01:45;16.52;;;9.30;;
41572;SDS011;27286;47.870;19.006;2023-02-15T06:04:10;17.95;;;8.98;;
41572;SDS011;27286;47.870;19.006;2023-02-15T06:06:36;20.55;;;11.35;;
41572;SDS011;27286;47.870;19.006;2023-02-15T06:09:01;20.48;;;10.80;;
41572;SDS011;27286;47.870;19.006;2023-02-15T06:11:27;20.10;;;11.65;;
41572;SDS011;27286;47.870;19.006;2023-02-15T06:13:52;25.42;;;12.30;;
41572;SDS011;27286;47.870;19.006;2023-02-15T06:16:18;21.17;;;12.15;;
41572;SDS011;27286;47.870;19.006;2023-02-15T06:18:43;22.25;;;13.23;;
41572;SDS011;27286;47.870;19.006;2023-02-15T06:21:09;26.13;;;15.32;;
41572;SDS011;27286;47.870;19.006;2023-02-15T06:23:34;28.73;;;17.10;;
41572;SDS011;27286;47.870;19.006;2023-02-15T06:26:00;30.33;;;17.90;;
41572;SDS011;27286;47.870;19.006;2023-02-15T06:28:25;43.10;;;26.92;;
41572;SDS011;27286;47.870;19.006;2023-02-15T06:30:51;38.25;;;23.55;;
41572;SDS011;27286;47.870;19.006;2023-02-15T06:33:17;39.20;;;22.65;;
41572;SDS011;27286;47.870;19.006;2023-02-15T06:35:42;47.17;;;25.15;;
41572;SDS011;27286;47.870;19.006;2023-02-15T06:38:09;82.70;;;38.25;;
41572;SDS011;27286;47.870;19.006;2023-02-15T06:40:35;70.85;;;33.05;;
41572;SDS011;27286;47.870;19.006;2023-02-15T06:43:00;61.33;;;29.33;;
41572;SDS011;27286;47.870;19.006;2023-02-15T06:45:25;34.30;;;18.58;;
41572;SDS011;27286;47.870;19.006;2023-02-15T06:47:51;44.88;;;23.05;;
41572;SDS011;27286;47.870;19.006;2023-02-15T06:50:16;45.20;;;21.70;;
41572;SDS011;27286;47.870;19.006;2023-02-15T06:52:42;39.83;;;22.23;;
41572;SDS011;27286;47.870;19.006;2023-02-15T06:55:07;28.77;;;15.45;;
41572;SDS011;27286;47.870;19.006;2023-02-15T06:57:33;22.15;;;13.38;;
41572;SDS011;27286;47.870;19.006;2023-02-15T06:59:58;21.92;;;13.15;;
41572;SDS011;27286;47.870;19.006;2023-02-15T07:02:24;18.33;;;11.63;;
41572;SDS011;27286;47.870;19.006;2023-02-15T07:04:49;18.33;;;10.90;;
41572;SDS011;27286;47.870;19.006;2023-02-15T07:07:15;17.65;;;10.80;;
41572;SDS011;27286;47.870;19.006;2023-02-15T07:09:40;19.83;;;11.20;;
41572;SDS011;27286;47.870;19.006;2023-02-15T07:12:06;18.83;;;11.57;;
41572;SDS011;27286;47.870;19.006;2023-02-15T07:14:50;15.50;;;10.77;;
41572;SDS011;27286;47.870;19.006;2023-02-15T07:17:16;18.10;;;10.88;;
41572;SDS011;27286;47.870;19.006;2023-02-15T07:19:42;16.20;;;10.68;;
41572;SDS011;27286;47.870;19.006;2023-02-15T07:22:08;20.10;;;11.52;;
41572;SDS011;27286;47.870;19.006;2023-02-15T07:24:33;19.70;;;10.95;;
41572;SDS011;27286;47.870;19.006;2023-02-15T07:26:59;23.40;;;11.40;;
41572;SDS011;27286;47.870;19.006;2023-02-15T07:29:24;19.27;;;11.38;;
41572;SDS011;27286;47.870;19.006;2023-02-15T07:31:50;19.80;;;11.95;;
41572;SDS011;27286;47.870;19.006;2023-02-15T07:34:15;16.75;;;11.70;;
41572;SDS011;27286;47.870;19.006;2023-02-15T07:36:41;19.65;;;12.93;;
41572;SDS011;27286;47.870;19.006;2023-02-15T07:39:06;20.95;;;13.73;;
41572;SDS011;27286;47.870;19.006;2023-02-15T07:41:32;19.10;;;13.27;;
41572;SDS011;27286;47.870;19.006;2023-02-15T07:43:57;22.67;;;14.18;;
41572;SDS011;27286;47.870;19.006;2023-02-15T07:46:23;19.83;;;12.18;;
41572;SDS011;27286;47.870;19.006;2023-02-15T07:48:48;18.13;;;12.50;;
41572;SDS011;27286;47.870;19.006;2023-02-15T07:51:14;26.23;;;15.07;;
41572;SDS011;27286;47.870;19.006;2023-02-15T07:53:40;22.65;;;16.90;;
41572;SDS011;27286;47.870;19.006;2023-02-15T07:56:07;21.38;;;14.85;;
41572;SDS011;27286;47.870;19.006;2023-02-15T07:58:35;19.98;;;14.20;;
41572;SDS011;27286;47.870;19.006;2023-02-15T08:01:17;18.83;;;15.57;;
41572;SDS011;27286;47.870;19.006;2023-02-15T08:03:56;21.08;;;15.27;;
41572;SDS011;27286;47.870;19.006;2023-02-15T08:06:22;25.80;;;16.00;;
41572;SDS011;27286;47.870;19.006;2023-02-15T08:08:50;22.95;;;18.33;;
41572;SDS011;27286;47.870;19.006;2023-02-15T08:13:54;20.45;;;16.98;;
41572;SDS011;27286;47.870;19.006;2023-02-15T08:16:37;22.20;;;18.33;;
41572;SDS011;27286;47.870;19.006;2023-02-15T08:19:07;23.83;;;18.00;;
41572;SDS011;27286;47.870;19.006;2023-02-15T08:21:38;23.73;;;19.65;;
41572;SDS011;27286;47.870;19.006;2023-02-15T08:24:05;23.48;;;20.33;;
41572;SDS011;27286;47.870;19.006;2023-02-15T08:26:32;29.20;;;21.40;;
41572;SDS011;27286;47.870;19.006;2023-02-15T08:28:59;28.00;;;23.75;;
41572;SDS011;27286;47.870;19.006;2023-02-15T08:31:26;30.08;;;22.17;;
41572;SDS011;27286;47.870;19.006;2023-02-15T08:33:53;23.50;;;20.77;;
41572;SDS011;27286;47.870;19.006;2023-02-15T08:36:21;29.27;;;22.85;;
41572;SDS011;27286;47.870;19.006;2023-02-15T08:38:48;24.67;;;21.95;;
41572;SDS011;27286;47.870;19.006;2023-02-15T08:43:43;24.90;;;21.20;;
41572;SDS011;27286;47.870;19.006;2023-02-15T08:46:10;29.27;;;21.63;;
41572;SDS011;27286;47.870;19.006;2023-02-15T08:48:36;24.92;;;20.88;;
41572;SDS011;27286;47.870;19.006;2023-02-15T08:51:05;28.75;;;22.05;;
41572;SDS011;27286;47.870;19.006;2023-02-15T08:53:36;26.33;;;22.13;;
41572;SDS011;27286;47.870;19.006;2023-02-15T08:56:02;26.08;;;21.13;;
41572;SDS011;27286;47.870;19.006;2023-02-15T08:58:28;26.38;;;22.38;;
41572;SDS011;27286;47.870;19.006;2023-02-15T09:00:54;24.83;;;19.20;;
41572;SDS011;27286;47.870;19.006;2023-02-15T09:03:20;27.38;;;21.65;;
41572;SDS011;27286;47.870;19.006;2023-02-15T09:05:45;21.50;;;19.27;;
41572;SDS011;27286;47.870;19.006;2023-02-15T09:08:10;23.95;;;21.35;;
41572;SDS011;27286;47.870;19.006;2023-02-15T09:10:36;23.95;;;20.13;;
41572;SDS011;27286;47.870;19.006;2023-02-15T09:13:01;23.27;;;20.60;;
41572;SDS011;27286;47.870;19.006;2023-02-15T09:15:27;23.17;;;18.88;;
41572;SDS011;27286;47.870;19.006;2023-02-15T09:17:52;22.17;;;18.85;;
41572;SDS011;27286;47.870;19.006;2023-02-15T09:20:18;24.77;;;16.27;;
41572;SDS011;27286;47.870;19.006;2023-02-15T09:22:43;21.38;;;15.80;;
41572;SDS011;27286;47.870;19.006;2023-02-15T09:25:09;22.52;;;18.70;;
41572;SDS011;27286;47.870;19.006;2023-02-15T09:27:34;25.38;;;19.15;;
41572;SDS011;27286;47.870;19.006;2023-02-15T09:30:01;22.25;;;17.10;;
41572;SDS011;27286;47.870;19.006;2023-02-15T09:32:27;21.52;;;19.23;;
41572;SDS011;27286;47.870;19.006;2023-02-15T09:34:53;22.13;;;18.23;;
41572;SDS011;27286;47.870;19.006;2023-02-15T09:37:18;22.80;;;17.00;;
41572;SDS011;27286;47.870;19.006;2023-02-15T09:39:44;21.30;;;17.27;;
41572;SDS011;27286;47.870;19.006;2023-02-15T09:45:17;23.13;;;18.83;;
41572;SDS011;27286;47.870;19.006;2023-02-15T09:53:47;20.67;;;18.13;;
41572;SDS011;27286;47.870;19.006;2023-02-15T10:04:54;20.25;;;16.92;;
41572;SDS011;27286;47.870;19.006;2023-02-15T10:12:57;21.52;;;18.02;;
41572;SDS011;27286;47.870;19.006;2023-02-15T10:21:01;29.17;;;25.33;;
41572;SDS011;27286;47.870;19.006;2023-02-15T10:26:43;24.15;;;21.20;;
41572;SDS011;27286;47.870;19.006;2023-02-15T10:37:49;15.60;;;13.90;;
41572;SDS011;27286;47.870;19.006;2023-02-15T10:48:24;17.35;;;15.55;;
41572;SDS011;27286;47.870;19.006;2023-02-15T10:50:56;17.15;;;15.35;;
41572;SDS011;27286;47.870;19.006;2023-02-15T10:53:46;15.98;;;14.38;;
41572;SDS011;27286;47.870;19.006;2023-02-15T10:59:11;17.45;;;15.15;;
41572;SDS011;27286;47.870;19.006;2023-02-15T11:07:15;17.58;;;15.50;;
41572;SDS011;27286;47.870;19.006;2023-02-15T11:12:48;18.52;;;16.50;;
41572;SDS011;27286;47.870;19.006;2023-02-15T11:17:46;16.70;;;14.93;;
41572;SDS011;27286;47.870;19.006;2023-02-15T11:20:25;16.55;;;14.82;;
41572;SDS011;27286;47.870;19.006;2023-02-15T11:22:57;15.60;;;14.00;;
41572;SDS011;27286;47.870;19.006;2023-02-15T11:25:32;15.65;;;14.13;;
41572;SDS011;27286;47.870;19.006;2023-02-15T11:27:59;17.92;;;15.27;;
41572;SDS011;27286;47.870;19.006;2023-02-15T11:30:40;16.92;;;15.10;;
41572;SDS011;27286;47.870;19.006;2023-02-15T11:33:17;16.40;;;14.57;;
41572;SDS011;27286;47.870;19.006;2023-02-15T11:38:28;16.42;;;14.68;;
41572;SDS011;27286;47.870;19.006;2023-02-15T11:41:01;16.02;;;13.98;;
41572;SDS011;27286;47.870;19.006;2023-02-15T11:43:44;15.70;;;14.00;;
41572;SDS011;27286;47.870;19.006;2023-02-15T11:46:18;15.60;;;14.02;;
41572;SDS011;27286;47.870;19.006;2023-02-15T11:48:45;18.33;;;16.17;;
41572;SDS011;27286;47.870;19.006;2023-02-15T11:51:12;17.95;;;16.15;;
41572;SDS011;27286;47.870;19.006;2023-02-15T11:53:41;23.13;;;19.33;;
41572;SDS011;27286;47.870;19.006;2023-02-15T11:56:24;16.75;;;15.02;;
41572;SDS011;27286;47.870;19.006;2023-02-15T12:01:37;25.95;;;15.25;;
41572;SDS011;27286;47.870;19.006;2023-02-15T12:06:44;20.45;;;17.58;;
41572;SDS011;27286;47.870;19.006;2023-02-15T12:09:38;17.02;;;15.20;;
41572;SDS011;27286;47.870;19.006;2023-02-15T12:14:57;18.52;;;16.45;;
41572;SDS011;27286;47.870;19.006;2023-02-15T12:17:26;18.30;;;14.90;;
41572;SDS011;27286;47.870;19.006;2023-02-15T12:19:55;19.42;;;14.30;;
41572;SDS011;27286;47.870;19.006;2023-02-15T12:22:30;16.70;;;14.98;;
41572;SDS011;27286;47.870;19.006;2023-02-15T12:25:02;22.75;;;14.50;;
41572;SDS011;27286;47.870;19.006;2023-02-15T12:27:42;21.00;;;15.77;;
41572;SDS011;27286;47.870;19.006;2023-02-15T12:32:59;20.42;;;17.02;;
41572;SDS011;27286;47.870;19.006;2023-02-15T12:35:54;16.67;;;14.98;;
41572;SDS011;27286;47.870;19.006;2023-02-15T12:38:25;20.63;;;16.13;;
41572;SDS011;27286;47.870;19.006;2023-02-15T12:43:25;18.08;;;16.23;;
41572;SDS011;27286;47.870;19.006;2023-02-15T12:48:44;17.45;;;15.80;;
41572;SDS011;27286;47.870;19.006;2023-02-15T12:51:13;17.90;;;16.05;;
41572;SDS011;27286;47.870;19.006;2023-02-15T12:53:40;17.77;;;15.05;;
41572;SDS011;27286;47.870;19.006;2023-02-15T12:56:06;16.35;;;14.73;;
41572;SDS011;27286;47.870;19.006;2023-02-15T12:58:35;19.08;;;16.70;;
41572;SDS011;27286;47.870;19.006;2023-02-15T13:01:03;17.70;;;14.82;;
41572;SDS011;27286;47.870;19.006;2023-02-15T13:06:03;17.58;;;15.43;;
41572;SDS011;27286;47.870;19.006;2023-02-15T13:08:53;18.05;;;14.73;;
41572;SDS011;27286;47.870;19.006;2023-02-15T13:11:31;18.67;;;16.70;;
41572;SDS011;27286;47.870;19.006;2023-02-15T13:14:01;19.88;;;16.13;;
41572;SDS011;27286;47.870;19.006;2023-02-15T13:16:36;17.52;;;15.50;;
41572;SDS011;27286;47.870;19.006;2023-02-15T13:19:26;18.05;;;15.82;;
41572;SDS011;27286;47.870;19.006;2023-02-15T13:22:07;19.70;;;15.48;;
41572;SDS011;27286;47.870;19.006;2023-02-15T13:24:43;17.67;;;15.88;;
41572;SDS011;27286;47.870;19.006;2023-02-15T13:27:14;19.17;;;15.02;;
41572;SDS011;27286;47.870;19.006;2023-02-15T13:29:53;27.77;;;21.67;;
41572;SDS011;27286;47.870;19.006;2023-02-15T13:32:31;22.50;;;16.10;;
41572;SDS011;27286;47.870;19.006;2023-02-15T13:35:01;17.40;;;15.57;;
41572;SDS011;27286;47.870;19.006;2023-02-15T13:51:43;25.60;;;18.30;;
41572;SDS011;27286;47.870;19.006;2023-02-15T14:08:08;42.15;;;18.52;;
41572;SDS011;27286;47.870;19.006;2023-02-15T14:10:57;27.85;;;21.92;;
41572;SDS011;27286;47.870;19.006;2023-02-15T14:13:51;30.42;;;19.23;;
41572;SDS011;27286;47.870;19.006;2023-02-15T14:19:37;23.17;;;17.38;;
41572;SDS011;27286;47.870;19.006;2023-02-15T14:25:13;28.25;;;19.77;;
41572;SDS011;27286;47.870;19.006;2023-02-15T14:30:23;34.95;;;18.05;;
41572;SDS011;27286;47.870;19.006;2023-02-15T14:32:54;26.70;;;18.15;;
41572;SDS011;27286;47.870;19.006;2023-02-15T14:35:26;28.90;;;19.98;;
41572;SDS011;27286;47.870;19.006;2023-02-15T14:43:41;28.65;;;19.65;;
41572;SDS011;27286;47.870;19.006;2023-02-15T14:48:55;35.72;;;26.80;;
41572;SDS011;27286;47.870;19.006;2023-02-15T14:54:52;36.30;;;25.15;;
41572;SDS011;27286;47.870;19.006;2023-02-15T14:59:27;32.20;;;20.98;;
41572;SDS011;27286;47.870;19.006;2023-02-15T15:02:10;27.85;;;21.33;;
41572;SDS011;27286;47.870;19.006;2023-02-15T15:07:28;24.48;;;19.08;;
41572;SDS011;27286;47.870;19.006;2023-02-15T15:45:46;40.35;;;26.50;;
41572;SDS011;27286;47.870;19.006;2023-02-15T15:48:30;46.63;;;29.88;;
41572;SDS011;27286;47.870;19.006;2023-02-15T15:51:19;49.15;;;35.85;;
41572;SDS011;27286;47.870;19.006;2023-02-15T15:53:46;53.17;;;37.50;;
41572;SDS011;27286;47.870;19.006;2023-02-15T15:56:19;53.17;;;36.78;;
41572;SDS011;27286;47.870;19.006;2023-02-15T15:59:00;37.50;;;26.95;;
41572;SDS011;27286;47.870;19.006;2023-02-15T16:01:30;35.17;;;24.05;;
41572;SDS011;27286;47.870;19.006;2023-02-15T16:04:00;28.98;;;22.20;;
41572;SDS011;27286;47.870;19.006;2023-02-15T16:06:30;35.20;;;22.20;;
41572;SDS011;27286;47.870;19.006;2023-02-15T16:09:20;37.90;;;23.88;;
41572;SDS011;27286;47.870;19.006;2023-02-15T16:11:51;37.25;;;25.02;;
41572;SDS011;27286;47.870;19.006;2023-02-15T16:14:31;38.78;;;27.13;;
41572;SDS011;27286;47.870;19.006;2023-02-15T16:17:01;59.22;;;32.60;;
41572;SDS011;27286;47.870;19.006;2023-02-15T16:19:30;44.35;;;32.80;;
41572;SDS011;27286;47.870;19.006;2023-02-15T16:21:59;35.13;;;25.15;;
41572;SDS011;27286;47.870;19.006;2023-02-15T16:29:55;24.20;;;18.63;;
41572;SDS011;27286;47.870;19.006;2023-02-15T16:32:24;23.75;;;17.33;;
41572;SDS011;27286;47.870;19.006;2023-02-15T16:34:56;23.85;;;17.98;;
41572;SDS011;27286;47.870;19.006;2023-02-15T16:37:38;34.92;;;18.45;;
41572;SDS011;27286;47.870;19.006;2023-02-15T16:40:04;24.50;;;16.73;;
41572;SDS011;27286;47.870;19.006;2023-02-15T16:42:30;25.13;;;17.92;;
41572;SDS011;27286;47.870;19.006;2023-02-15T16:47:40;28.35;;;18.00;;
41572;SDS011;27286;47.870;19.006;2023-02-15T16:50:16;30.77;;;19.13;;
41572;SDS011;27286;47.870;19.006;2023-02-15T16:52:47;27.10;;;19.02;;
41572;SDS011;27286;47.870;19.006;2023-02-15T16:55:27;23.20;;;18.08;;
41572;SDS011;27286;47.870;19.006;2023-02-15T16:57:59;27.35;;;19.45;;
41572;SDS011;27286;47.870;19.006;2023-02-15T17:00:36;41.72;;;27.88;;
41572;SDS011;27286;47.870;19.006;2023-02-15T17:05:47;33.55;;;22.17;;
41572;SDS011;27286;47.870;19.006;2023-02-15T17:13:24;25.48;;;17.58;;
41572;SDS011;27286;47.870;19.006;2023-02-15T17:20:56;26.08;;;19.13;;
41572;SDS011;27286;47.870;19.006;2023-02-15T17:25:58;35.25;;;23.02;;
41572;SDS011;27286;47.870;19.006;2023-02-15T17:28:29;80.55;;;44.08;;
41572;SDS011;27286;47.870;19.006;2023-02-15T17:30:56;115.55;;;64.05;;
41572;SDS011;27286;47.870;19.006;2023-02-15T17:36:02;313.42;;;160.95;;
41572;SDS011;27286;47.870;19.006;2023-02-15T17:41:25;194.05;;;102.88;;
41572;SDS011;27286;47.870;19.006;2023-02-15T17:43:56;182.30;;;87.50;;
41572;SDS011;27286;47.870;19.006;2023-02-15T17:46:24;123.85;;;61.17;;
41572;SDS011;27286;47.870;19.006;2023-02-15T17:48:56;55.35;;;31.52;;
41572;SDS011;27286;47.870;19.006;2023-02-15T17:51:23;41.50;;;21.95;;
41572;SDS011;27286;47.870;19.006;2023-02-15T17:53:49;27.58;;;16.83;;
41572;SDS011;27286;47.870;19.006;2023-02-15T17:56:34;37.00;;;17.92;;
41572;SDS011;27286;47.870;19.006;2023-02-15T17:59:01;30.23;;;17.25;;
41572;SDS011;27286;47.870;19.006;2023-02-15T18:01:34;52.67;;;28.02;;
41572;SDS011;27286;47.870;19.006;2023-02-15T18:04:20;86.10;;;41.72;;
41572;SDS011;27286;47.870;19.006;2023-02-15T18:07:04;56.80;;;35.08;;
41572;SDS011;27286;47.870;19.006;2023-02-15T18:09:51;59.08;;;35.15;;
41572;SDS011;27286;47.870;19.006;2023-02-15T18:12:36;41.90;;;27.17;;
41572;SDS011;27286;47.870;19.006;2023-02-15T18:15:03;32.47;;;21.92;;
41572;SDS011;27286;47.870;19.006;2023-02-15T18:17:37;31.48;;;20.27;;
41572;SDS011;27286;47.870;19.006;2023-02-15T18:20:19;30.20;;;18.83;;
41572;SDS011;27286;47.870;19.006;2023-02-15T18:22:53;32.63;;;20.67;;
41572;SDS011;27286;47.870;19.006;2023-02-15T18:25:21;28.80;;;20.40;;
41572;SDS011;27286;47.870;19.006;2023-02-15T18:27:49;69.25;;;42.47;;